»·PEaware :: N335AK KSAC-KTRM

N335AK :: KSAC-KTRM

FLIGHT INFORMATION

Flight Status: Arrived
Operator: Privately registered:
United States
More flights under this callsign
Pilot: Gabor H. (24209)
Aircraft: Unknown
(EPIC)
More flights by this aircraft type
Origin: KSAC Sacramento Executive
United States
Destination: KTRM Desert Resorts Regl
United States
More flights between these airports :: More routes between these airports
Route: +FROGO FRA LANDO GLRNO SIZLR3
File this flight plan on PilotEdge
Remarks:
Altitude:
(Current/Filed)
27,000ft
Speed:
(Current/Filed)
325kts
Departed: 27-Oct-20 10:55 AM
Arrived: 27-Oct-20 12:15 PM
Distance/Time
Traveled:
390nm/1:20
Distance/Time
To Go:
Arrived

Flight Plot

Page will automatically refresh every two minutes.

Flight plan parsing failed; only flown route is shown


Map Options




Map Legend


Flown Route
Filed Route
Departure Airport
Arrival Airport
Navaid (VOR, NDB)
Fix

Horizontal Profiles

Position Reports

Time Latitude Longitude Heading Altitude Ground
Speed
27-Oct-20 10:37 38.514762 -121.498403 226 23ft 0kts
27-Oct-20 10:38 38.514762 -121.498403 226 23ft 0kts
27-Oct-20 10:39 38.514762 -121.498403 226 23ft 0kts
27-Oct-20 10:40 38.514762 -121.498403 226 23ft 0kts
27-Oct-20 10:41 38.514762 -121.498403 226 23ft 0kts
27-Oct-20 10:42 38.514762 -121.498403 226 23ft 0kts
27-Oct-20 10:43 38.514762 -121.498403 226 23ft 0kts
27-Oct-20 10:44 38.514762 -121.498403 226 23ft 0kts
27-Oct-20 10:45 38.514762 -121.498404 226 23ft 0kts
27-Oct-20 10:46 38.513602 -121.495765 88 24ft 17kts
27-Oct-20 10:47 38.517030 -121.492589 32 25ft 17kts
27-Oct-20 10:48 38.519437 -121.490548 174 25ft 0kts
27-Oct-20 10:49 38.519437 -121.490548 174 25ft 0kts
27-Oct-20 10:50 38.519437 -121.490548 174 25ft 0kts
27-Oct-20 10:51 38.519437 -121.490548 174 25ft 0kts
27-Oct-20 10:51 38.519437 -121.490548 174 25ft 0kts
27-Oct-20 10:53 38.519233 -121.490368 125 25ft 0kts
27-Oct-20 10:53 38.517663 -121.490407 213 26ft 36kts
27-Oct-20 10:55 38.474852 -121.489798 163 2215ft 177kts
27-Oct-20 10:55 38.436812 -121.475782 156 2754ft 182kts
27-Oct-20 10:56 38.417051 -121.413800 103 4995ft 215kts
27-Oct-20 10:57 38.398991 -121.340930 101 7873ft 221kts
27-Oct-20 10:58 38.380357 -121.266953 100 11110ft 221kts
27-Oct-20 11:00 38.358239 -121.179272 100 14237ft 232kts
27-Oct-20 11:00 38.341445 -121.113203 100 16187ft 240kts
27-Oct-20 11:01 38.320474 -121.030943 100 18117ft 249kts
27-Oct-20 11:02 38.298726 -120.945904 100 19749ft 256kts
27-Oct-20 11:03 38.276210 -120.858142 100 21062ft 266kts
27-Oct-20 11:04 38.252918 -120.767693 100 22192ft 273kts
27-Oct-20 11:05 38.223446 -120.677869 128 23198ft 295kts
27-Oct-20 11:06 38.158891 -120.611249 135 24210ft 301kts
27-Oct-20 11:07 38.092822 -120.546465 135 25219ft 300kts
27-Oct-20 11:08 38.027147 -120.482243 136 26231ft 297kts
27-Oct-20 11:09 37.961636 -120.418311 136 27059ft 303kts
27-Oct-20 11:10 37.891317 -120.349900 137 27002ft 331kts
27-Oct-20 11:11 37.816941 -120.277725 137 26998ft 342kts
27-Oct-20 11:12 37.740905 -120.204112 138 26999ft 346kts
27-Oct-20 11:13 37.664416 -120.130257 138 27041ft 347kts
27-Oct-20 11:14 37.587789 -120.056463 138 27137ft 346kts
27-Oct-20 11:15 37.511246 -119.982937 138 27200ft 347kts
27-Oct-20 11:16 37.434279 -119.909214 138 27210ft 349kts
27-Oct-20 11:17 37.357110 -119.835484 138 27211ft 350kts
27-Oct-20 11:18 37.279716 -119.761739 138 27212ft 350kts
27-Oct-20 11:19 37.201831 -119.687719 138 27207ft 351kts
27-Oct-20 11:20 37.124150 -119.614086 138 27205ft 351kts
27-Oct-20 11:21 37.034883 -119.561978 155 27205ft 357kts
27-Oct-20 11:22 36.942412 -119.517567 155 27206ft 358kts
27-Oct-20 11:23 36.849531 -119.473094 155 27196ft 357kts
27-Oct-20 11:24 36.756895 -119.428854 155 27197ft 356kts
27-Oct-20 11:25 36.664479 -119.384832 155 27198ft 356kts
27-Oct-20 11:26 36.572174 -119.340971 155 27200ft 356kts
27-Oct-20 11:27 36.479389 -119.296996 155 27201ft 357kts
27-Oct-20 11:28 36.386901 -119.253283 155 27202ft 357kts
27-Oct-20 11:29 36.293813 -119.209392 155 27201ft 357kts
27-Oct-20 11:30 36.201092 -119.165790 155 27200ft 358kts
27-Oct-20 11:31 36.108291 -119.122258 155 27198ft 358kts
27-Oct-20 11:32 36.015135 -119.078670 155 27197ft 358kts
27-Oct-20 11:33 35.921840 -119.035128 155 27197ft 358kts
27-Oct-20 11:34 35.828948 -118.991881 155 27188ft 357kts
27-Oct-20 11:35 35.735854 -118.948650 155 27182ft 357kts
27-Oct-20 11:36 35.643153 -118.905709 156 27175ft 357kts
27-Oct-20 11:37 35.550200 -118.862762 156 27173ft 356kts
27-Oct-20 11:38 35.457551 -118.820056 156 27173ft 356kts
27-Oct-20 11:39 35.364808 -118.777413 156 27179ft 356kts
27-Oct-20 11:40 35.272175 -118.734928 156 27193ft 356kts
27-Oct-20 11:41 35.179619 -118.692580 156 27209ft 356kts
27-Oct-20 11:42 35.087058 -118.650333 156 27239ft 356kts
27-Oct-20 11:43 34.999025 -118.599430 130 27266ft 345kts
27-Oct-20 11:44 34.930576 -118.517129 128 27252ft 347kts
27-Oct-20 11:45 34.859236 -118.430885 129 25794ft 377kts
27-Oct-20 11:46 34.783443 -118.339480 128 24270ft 382kts
27-Oct-20 11:47 34.720437 -118.242751 122 24240ft 356kts
27-Oct-20 11:48 34.660055 -118.149319 121 23989ft 356kts
27-Oct-20 11:49 34.596621 -118.051491 122 22386ft 378kts
27-Oct-20 11:50 34.547026 -117.945814 109 22233ft 349kts
27-Oct-20 11:51 34.504418 -117.841772 109 22207ft 342kts
27-Oct-20 11:52 34.462258 -117.739133 109 22204ft 339kts
27-Oct-20 11:53 34.420328 -117.636661 109 21807ft 350kts
27-Oct-20 11:54 34.375604 -117.527388 110 20222ft 369kts
27-Oct-20 11:55 34.331119 -117.419050 110 18626ft 355kts
27-Oct-20 11:56 34.286127 -117.313482 113 17068ft 352kts
27-Oct-20 11:57 34.238578 -117.211400 114 15961ft 341kts
27-Oct-20 11:58 34.192016 -117.112084 113 15956ft 339kts
27-Oct-20 11:59 34.145469 -117.013145 113 15957ft 340kts
27-Oct-20 12:00 34.098893 -116.914007 111 15958ft 341kts
27-Oct-20 12:01 34.052300 -116.814383 111 14556ft 338kts
27-Oct-20 12:02 34.017155 -116.712689 100 13159ft 325kts
27-Oct-20 12:03 33.989673 -116.610059 100 11722ft 311kts
27-Oct-20 12:04 33.955565 -116.520544 112 10812ft 269kts
27-Oct-20 12:05 33.912799 -116.452820 120 9617ft 234kts
27-Oct-20 12:06 33.873186 -116.393179 119 9591ft 222kts
27-Oct-20 12:07 33.832803 -116.331270 121 8382ft 247kts
27-Oct-20 12:08 33.789766 -116.267635 131 6821ft 256kts
27-Oct-20 12:09 33.728562 -116.229097 159 4836ft 248kts
27-Oct-20 12:10 33.665687 -116.204988 160 2979ft 232kts
27-Oct-20 12:11 33.609565 -116.187990 174 1864ft 149kts
27-Oct-20 12:12 33.581212 -116.171957 89 1553ft 131kts
27-Oct-20 12:13 33.603645 -116.156157 0 627ft 110kts
27-Oct-20 12:14 33.624417 -116.156454 356 -125ft 16kts
27-Oct-20 12:15 33.628073 -116.157785 357 -121ft 16kts
27-Oct-20 12:16 33.634820 -116.157756 357 -116ft 26kts
27-Oct-20 12:17 33.636316 -116.158853 358 -113ft 0kts
27-Oct-20 12:18 33.636316 -116.158853 358 -113ft 0kts
27-Oct-20 12:19 33.636316 -116.158853 358 -113ft 0kts
27-Oct-20 12:20 33.636316 -116.158853 358 -113ft 0kts
27-Oct-20 12:21 33.636316 -116.158853 358 -113ft 0kts
27-Oct-20 12:22 33.636316 -116.158853 358 -113ft 0kts
27-Oct-20 12:23 33.636316 -116.158853 358 -113ft 0kts
27-Oct-20 12:24 33.636316 -116.158853 358 -113ft 0kts
27-Oct-20 12:25 33.636316 -116.158853 358 -113ft 0kts
27-Oct-20 12:26 33.636316 -116.158853 358 -113ft 0kts
27-Oct-20 12:27 33.636316 -116.158853 358 -113ft 0kts
27-Oct-20 12:28 33.636316 -116.158853 358 -113ft 0kts
27-Oct-20 12:29 33.636316 -116.158853 358 -113ft 0kts

Navigation Log

Ident Type
Flight plan parsing failed, navigation log unavailable